sensor_id;sensor_type;location;lat;lon;timestamp;temperature;humidity
11963;DHT22;62678;52.130;5.584;2023-02-11T00:01:41;7.30;99.90
11963;DHT22;62678;52.130;5.584;2023-02-11T00:04:07;7.30;99.90
11963;DHT22;62678;52.130;5.584;2023-02-11T00:06:35;7.30;99.90
11963;DHT22;62678;52.130;5.584;2023-02-11T00:09:04;7.30;99.90
11963;DHT22;62678;52.130;5.584;2023-02-11T00:11:31;7.30;99.90
11963;DHT22;62678;52.130;5.584;2023-02-11T00:13:59;7.30;99.90
11963;DHT22;62678;52.130;5.584;2023-02-11T00:16:27;7.30;99.90
11963;DHT22;62678;52.130;5.584;2023-02-11T00:18:55;7.30;99.90
11963;DHT22;62678;52.130;5.584;2023-02-11T00:21:24;7.30;99.90
11963;DHT22;62678;52.130;5.584;2023-02-11T00:23:52;7.20;99.90
11963;DHT22;62678;52.130;5.584;2023-02-11T00:26:22;7.20;99.90
11963;DHT22;62678;52.130;5.584;2023-02-11T00:28:50;7.30;99.90
11963;DHT22;62678;52.130;5.584;2023-02-11T00:31:20;7.20;99.90
11963;DHT22;62678;52.130;5.584;2023-02-11T00:33:48;7.20;99.90
11963;DHT22;62678;52.130;5.584;2023-02-11T00:36:16;7.30;99.90
11963;DHT22;62678;52.130;5.584;2023-02-11T00:38:44;7.30;99.90
11963;DHT22;62678;52.130;5.584;2023-02-11T00:41:12;7.40;99.90
11963;DHT22;62678;52.130;5.584;2023-02-11T00:43:40;7.30;99.90
11963;DHT22;62678;52.130;5.584;2023-02-11T00:46:07;7.40;99.90
11963;DHT22;62678;52.130;5.584;2023-02-11T00:48:34;7.30;99.90
11963;DHT22;62678;52.130;5.584;2023-02-11T00:51:02;7.30;99.90
11963;DHT22;62678;52.130;5.584;2023-02-11T00:53:29;7.30;99.90
11963;DHT22;62678;52.130;5.584;2023-02-11T00:55:55;7.30;99.90
11963;DHT22;62678;52.130;5.584;2023-02-11T00:58:22;7.40;99.90
11963;DHT22;62678;52.130;5.584;2023-02-11T01:00:51;7.40;99.90
11963;DHT22;62678;52.130;5.584;2023-02-11T01:03:18;7.40;99.90
11963;DHT22;62678;52.130;5.584;2023-02-11T01:05:45;7.30;99.90
11963;DHT22;62678;52.130;5.584;2023-02-11T01:08:11;7.30;99.90
11963;DHT22;62678;52.130;5.584;2023-02-11T01:10:38;7.30;99.90
11963;DHT22;62678;52.130;5.584;2023-02-11T01:13:05;7.30;99.90
11963;DHT22;62678;52.130;5.584;2023-02-11T01:15:32;7.20;99.90
11963;DHT22;62678;52.130;5.584;2023-02-11T01:18:00;7.20;99.90
11963;DHT22;62678;52.130;5.584;2023-02-11T01:20:28;7.10;99.90
11963;DHT22;62678;52.130;5.584;2023-02-11T01:22:55;7.20;99.90
11963;DHT22;62678;52.130;5.584;2023-02-11T01:25:21;7.10;99.90
11963;DHT22;62678;52.130;5.584;2023-02-11T01:27:48;7.00;99.90
11963;DHT22;62678;52.130;5.584;2023-02-11T01:30:15;7.00;99.90
11963;DHT22;62678;52.130;5.584;2023-02-11T01:32:42;7.00;99.90
11963;DHT22;62678;52.130;5.584;2023-02-11T01:35:10;6.90;99.90
11963;DHT22;62678;52.130;5.584;2023-02-11T01:37:37;6.90;99.90
11963;DHT22;62678;52.130;5.584;2023-02-11T01:40:06;6.90;99.90
11963;DHT22;62678;52.130;5.584;2023-02-11T01:42:34;7.00;99.90
11963;DHT22;62678;52.130;5.584;2023-02-11T01:48:07;7.00;99.90
11963;DHT22;62678;52.130;5.584;2023-02-11T01:50:36;7.00;99.90
11963;DHT22;62678;52.130;5.584;2023-02-11T01:53:04;7.10;99.90
11963;DHT22;62678;52.130;5.584;2023-02-11T01:55:45;7.00;99.90
11963;DHT22;62678;52.130;5.584;2023-02-11T01:58:31;7.10;99.90
11963;DHT22;62678;52.130;5.584;2023-02-11T02:01:03;7.00;99.90
11963;DHT22;62678;52.130;5.584;2023-02-11T02:03:33;7.00;99.90
11963;DHT22;62678;52.130;5.584;2023-02-11T02:06:06;7.00;99.90
11963;DHT22;62678;52.130;5.584;2023-02-11T02:08:39;7.00;99.90
11963;DHT22;62678;52.130;5.584;2023-02-11T02:11:08;7.00;99.90
11963;DHT22;62678;52.130;5.584;2023-02-11T02:13:35;7.10;99.90
11963;DHT22;62678;52.130;5.584;2023-02-11T02:16:04;7.10;99.90
11963;DHT22;62678;52.130;5.584;2023-02-11T02:18:38;7.10;99.90
11963;DHT22;62678;52.130;5.584;2023-02-11T02:21:24;7.10;99.90
11963;DHT22;62678;52.130;5.584;2023-02-11T02:24:20;7.00;99.90
11963;DHT22;62678;52.130;5.584;2023-02-11T02:30:29;7.00;99.90
11963;DHT22;62678;52.130;5.584;2023-02-11T02:33:13;7.00;99.90
11963;DHT22;62678;52.130;5.584;2023-02-11T02:35:44;7.00;99.90
11963;DHT22;62678;52.130;5.584;2023-02-11T02:38:16;7.00;99.90
11963;DHT22;62678;52.130;5.584;2023-02-11T02:40:47;7.00;99.90
11963;DHT22;62678;52.130;5.584;2023-02-11T02:43:16;7.00;99.90
11963;DHT22;62678;52.130;5.584;2023-02-11T02:45:43;6.90;99.90
11963;DHT22;62678;52.130;5.584;2023-02-11T02:48:24;6.90;99.90
11963;DHT22;62678;52.130;5.584;2023-02-11T02:50:54;7.00;99.90
11963;DHT22;62678;52.130;5.584;2023-02-11T02:53:31;7.00;99.90
11963;DHT22;62678;52.130;5.584;2023-02-11T02:56:06;7.00;99.90
11963;DHT22;62678;52.130;5.584;2023-02-11T02:58:51;6.90;99.90
11963;DHT22;62678;52.130;5.584;2023-02-11T03:01:28;6.90;99.90
11963;DHT22;62678;52.130;5.584;2023-02-11T03:04:05;6.90;99.90
11963;DHT22;62678;52.130;5.584;2023-02-11T03:06:39;7.00;99.90
11963;DHT22;62678;52.130;5.584;2023-02-11T03:09:12;6.90;99.90
11963;DHT22;62678;52.130;5.584;2023-02-11T03:11:40;6.90;99.90
11963;DHT22;62678;52.130;5.584;2023-02-11T03:14:10;6.90;99.90
11963;DHT22;62678;52.130;5.584;2023-02-11T03:16:38;6.90;99.90
11963;DHT22;62678;52.130;5.584;2023-02-11T03:19:11;6.90;99.90
11963;DHT22;62678;52.130;5.584;2023-02-11T03:21:41;7.00;99.90
11963;DHT22;62678;52.130;5.584;2023-02-11T03:24:13;6.90;99.90
11963;DHT22;62678;52.130;5.584;2023-02-11T03:26:45;6.80;99.90
11963;DHT22;62678;52.130;5.584;2023-02-11T03:29:17;6.80;99.90
11963;DHT22;62678;52.130;5.584;2023-02-11T03:31:54;6.80;99.90
11963;DHT22;62678;52.130;5.584;2023-02-11T03:34:28;6.80;99.90
11963;DHT22;62678;52.130;5.584;2023-02-11T03:36:59;6.70;99.90
11963;DHT22;62678;52.130;5.584;2023-02-11T03:39:32;6.80;99.90
11963;DHT22;62678;52.130;5.584;2023-02-11T03:42:02;6.70;99.90
11963;DHT22;62678;52.130;5.584;2023-02-11T03:44:33;6.70;99.90
11963;DHT22;62678;52.130;5.584;2023-02-11T03:47:02;6.70;99.90
11963;DHT22;62678;52.130;5.584;2023-02-11T03:49:32;6.80;99.90
11963;DHT22;62678;52.130;5.584;2023-02-11T03:52:02;6.80;99.90
11963;DHT22;62678;52.130;5.584;2023-02-11T03:54:30;6.80;99.90
11963;DHT22;62678;52.130;5.584;2023-02-11T03:56:59;6.80;99.90
11963;DHT22;62678;52.130;5.584;2023-02-11T03:59:27;6.80;99.90
11963;DHT22;62678;52.130;5.584;2023-02-11T04:01:54;6.90;99.90
11963;DHT22;62678;52.130;5.584;2023-02-11T04:04:21;6.90;99.90
11963;DHT22;62678;52.130;5.584;2023-02-11T04:06:49;6.90;99.90
11963;DHT22;62678;52.130;5.584;2023-02-11T04:09:16;6.80;99.90
11963;DHT22;62678;52.130;5.584;2023-02-11T04:11:42;6.90;99.90
11963;DHT22;62678;52.130;5.584;2023-02-11T04:14:09;6.80;99.90
11963;DHT22;62678;52.130;5.584;2023-02-11T04:16:36;6.90;99.90
11963;DHT22;62678;52.130;5.584;2023-02-11T04:19:03;6.90;99.90
11963;DHT22;62678;52.130;5.584;2023-02-11T04:21:29;6.90;99.90
11963;DHT22;62678;52.130;5.584;2023-02-11T04:23:57;6.90;99.90
11963;DHT22;62678;52.130;5.584;2023-02-11T04:26:24;6.80;99.90
11963;DHT22;62678;52.130;5.584;2023-02-11T04:28:51;6.80;99.90
11963;DHT22;62678;52.130;5.584;2023-02-11T04:31:18;6.90;99.90
11963;DHT22;62678;52.130;5.584;2023-02-11T04:33:45;6.90;99.90
11963;DHT22;62678;52.130;5.584;2023-02-11T04:36:12;6.90;99.90
11963;DHT22;62678;52.130;5.584;2023-02-11T04:38:38;6.90;99.90
11963;DHT22;62678;52.130;5.584;2023-02-11T04:41:07;6.90;99.90
11963;DHT22;62678;52.130;5.584;2023-02-11T04:43:33;6.90;99.90
11963;DHT22;62678;52.130;5.584;2023-02-11T04:46:00;7.00;99.90
11963;DHT22;62678;52.130;5.584;2023-02-11T04:48:27;6.90;99.90
11963;DHT22;62678;52.130;5.584;2023-02-11T04:50:54;6.90;99.90
11963;DHT22;62678;52.130;5.584;2023-02-11T04:53:21;7.00;99.90
11963;DHT22;62678;52.130;5.584;2023-02-11T04:55:48;7.00;99.90
11963;DHT22;62678;52.130;5.584;2023-02-11T04:58:17;7.00;99.90
11963;DHT22;62678;52.130;5.584;2023-02-11T05:00:44;7.00;99.90
11963;DHT22;62678;52.130;5.584;2023-02-11T05:03:11;7.00;99.90
11963;DHT22;62678;52.130;5.584;2023-02-11T05:05:38;7.00;99.90
11963;DHT22;62678;52.130;5.584;2023-02-11T05:08:06;7.00;99.90
11963;DHT22;62678;52.130;5.584;2023-02-11T05:10:33;7.00;99.90
11963;DHT22;62678;52.130;5.584;2023-02-11T05:12:59;6.90;99.90
11963;DHT22;62678;52.130;5.584;2023-02-11T05:15:28;6.80;99.90
11963;DHT22;62678;52.130;5.584;2023-02-11T05:17:55;6.80;99.90
11963;DHT22;62678;52.130;5.584;2023-02-11T05:20:22;6.80;99.90
11963;DHT22;62678;52.130;5.584;2023-02-11T05:22:49;6.80;99.90
11963;DHT22;62678;52.130;5.584;2023-02-11T05:25:16;6.90;99.90
11963;DHT22;62678;52.130;5.584;2023-02-11T05:27:43;6.90;99.90
11963;DHT22;62678;52.130;5.584;2023-02-11T05:30:10;6.90;99.90
11963;DHT22;62678;52.130;5.584;2023-02-11T05:32:38;6.90;99.90
11963;DHT22;62678;52.130;5.584;2023-02-11T05:35:06;6.90;99.90
11963;DHT22;62678;52.130;5.584;2023-02-11T05:37:33;6.90;99.90
11963;DHT22;62678;52.130;5.584;2023-02-11T05:40:00;6.90;99.90
11963;DHT22;62678;52.130;5.584;2023-02-11T05:42:27;7.00;99.90
11963;DHT22;62678;52.130;5.584;2023-02-11T05:44:53;7.00;99.90
11963;DHT22;62678;52.130;5.584;2023-02-11T05:47:20;7.00;99.90
11963;DHT22;62678;52.130;5.584;2023-02-11T05:49:50;7.00;99.90
11963;DHT22;62678;52.130;5.584;2023-02-11T05:52:17;7.00;99.90
11963;DHT22;62678;52.130;5.584;2023-02-11T05:54:44;7.00;99.90
11963;DHT22;62678;52.130;5.584;2023-02-11T05:57:11;7.00;99.90
11963;DHT22;62678;52.130;5.584;2023-02-11T05:59:38;7.10;99.90
11963;DHT22;62678;52.130;5.584;2023-02-11T06:02:05;7.10;99.90
11963;DHT22;62678;52.130;5.584;2023-02-11T06:04:32;7.20;99.90
11963;DHT22;62678;52.130;5.584;2023-02-11T06:07:01;7.20;99.90
11963;DHT22;62678;52.130;5.584;2023-02-11T06:09:27;7.20;99.90
11963;DHT22;62678;52.130;5.584;2023-02-11T06:11:54;7.20;99.90
11963;DHT22;62678;52.130;5.584;2023-02-11T06:14:21;7.10;99.90
11963;DHT22;62678;52.130;5.584;2023-02-11T06:16:48;7.10;99.90
11963;DHT22;62678;52.130;5.584;2023-02-11T06:19:15;7.10;99.90
11963;DHT22;62678;52.130;5.584;2023-02-11T06:21:41;7.20;99.90
11963;DHT22;62678;52.130;5.584;2023-02-11T06:24:10;7.20;99.90
11963;DHT22;62678;52.130;5.584;2023-02-11T06:26:36;7.10;99.90
11963;DHT22;62678;52.130;5.584;2023-02-11T06:29:03;7.20;99.90
11963;DHT22;62678;52.130;5.584;2023-02-11T06:31:30;7.20;99.90
11963;DHT22;62678;52.130;5.584;2023-02-11T06:33:57;7.20;99.90
11963;DHT22;62678;52.130;5.584;2023-02-11T06:36:24;7.20;99.90
11963;DHT22;62678;52.130;5.584;2023-02-11T06:38:51;7.20;99.90
11963;DHT22;62678;52.130;5.584;2023-02-11T06:41:19;7.20;99.90
11963;DHT22;62678;52.130;5.584;2023-02-11T06:43:48;7.20;99.90
11963;DHT22;62678;52.130;5.584;2023-02-11T06:46:15;7.10;99.90
11963;DHT22;62678;52.130;5.584;2023-02-11T06:48:42;7.20;99.90
11963;DHT22;62678;52.130;5.584;2023-02-11T06:51:10;7.30;99.90
11963;DHT22;62678;52.130;5.584;2023-02-11T06:53:40;7.30;99.90
11963;DHT22;62678;52.130;5.584;2023-02-11T06:56:09;7.30;99.90
11963;DHT22;62678;52.130;5.584;2023-02-11T06:58:37;7.30;99.90
11963;DHT22;62678;52.130;5.584;2023-02-11T07:01:05;7.30;99.90
11963;DHT22;62678;52.130;5.584;2023-02-11T07:03:32;7.20;99.90
11963;DHT22;62678;52.130;5.584;2023-02-11T07:06:00;7.30;99.90
11963;DHT22;62678;52.130;5.584;2023-02-11T07:08:27;7.20;99.90
11963;DHT22;62678;52.130;5.584;2023-02-11T07:10:54;7.30;99.90
11963;DHT22;62678;52.130;5.584;2023-02-11T07:13:21;7.30;99.90
11963;DHT22;62678;52.130;5.584;2023-02-11T07:15:49;7.30;99.90
11963;DHT22;62678;52.130;5.584;2023-02-11T07:18:16;7.30;99.90
11963;DHT22;62678;52.130;5.584;2023-02-11T07:20:43;7.40;99.90
11963;DHT22;62678;52.130;5.584;2023-02-11T07:23:10;7.40;99.90
11963;DHT22;62678;52.130;5.584;2023-02-11T07:25:36;7.40;99.90
11963;DHT22;62678;52.130;5.584;2023-02-11T07:28:04;7.40;99.90
11963;DHT22;62678;52.130;5.584;2023-02-11T07:30:30;7.40;99.90
11963;DHT22;62678;52.130;5.584;2023-02-11T07:32:59;7.40;99.90
11963;DHT22;62678;52.130;5.584;2023-02-11T07:35:25;7.40;99.90
11963;DHT22;62678;52.130;5.584;2023-02-11T07:37:52;7.50;99.90
11963;DHT22;62678;52.130;5.584;2023-02-11T07:40:19;7.40;99.90
11963;DHT22;62678;52.130;5.584;2023-02-11T07:42:46;7.50;99.90
11963;DHT22;62678;52.130;5.584;2023-02-11T07:45:13;7.50;99.90
11963;DHT22;62678;52.130;5.584;2023-02-11T07:47:40;7.50;99.90
11963;DHT22;62678;52.130;5.584;2023-02-11T07:50:09;7.50;99.90
11963;DHT22;62678;52.130;5.584;2023-02-11T07:52:36;7.50;99.90
11963;DHT22;62678;52.130;5.584;2023-02-11T07:55:03;7.50;99.90
11963;DHT22;62678;52.130;5.584;2023-02-11T07:57:30;7.60;99.90
11963;DHT22;62678;52.130;5.584;2023-02-11T07:59:57;7.50;99.90
11963;DHT22;62678;52.130;5.584;2023-02-11T08:02:24;7.60;99.90
11963;DHT22;62678;52.130;5.584;2023-02-11T08:04:50;7.70;99.90
11963;DHT22;62678;52.130;5.584;2023-02-11T08:07:19;7.70;99.90
11963;DHT22;62678;52.130;5.584;2023-02-11T08:09:45;7.70;99.90
11963;DHT22;62678;52.130;5.584;2023-02-11T08:12:12;7.70;99.90
11963;DHT22;62678;52.130;5.584;2023-02-11T08:14:39;7.70;99.90
11963;DHT22;62678;52.130;5.584;2023-02-11T08:17:06;7.70;99.90
11963;DHT22;62678;52.130;5.584;2023-02-11T08:19:33;7.70;99.90
11963;DHT22;62678;52.130;5.584;2023-02-11T08:22:00;7.80;99.90
11963;DHT22;62678;52.130;5.584;2023-02-11T08:24:28;7.90;99.90
11963;DHT22;62678;52.130;5.584;2023-02-11T08:26:55;7.80;99.90
11963;DHT22;62678;52.130;5.584;2023-02-11T08:29:21;7.90;99.90
11963;DHT22;62678;52.130;5.584;2023-02-11T08:31:48;7.80;99.90
11963;DHT22;62678;52.130;5.584;2023-02-11T08:34:15;7.80;99.90
11963;DHT22;62678;52.130;5.584;2023-02-11T08:36:45;7.80;99.90
11963;DHT22;62678;52.130;5.584;2023-02-11T08:39:14;7.90;99.90
11963;DHT22;62678;52.130;5.584;2023-02-11T08:41:43;7.90;99.90
11963;DHT22;62678;52.130;5.584;2023-02-11T08:44:11;8.00;99.90
11963;DHT22;62678;52.130;5.584;2023-02-11T08:46:38;7.90;99.90
11963;DHT22;62678;52.130;5.584;2023-02-11T08:49:04;7.90;99.90
11963;DHT22;62678;52.130;5.584;2023-02-11T08:51:32;7.90;99.90
11963;DHT22;62678;52.130;5.584;2023-02-11T08:53:59;7.90;99.90
11963;DHT22;62678;52.130;5.584;2023-02-11T08:56:27;8.10;99.90
11963;DHT22;62678;52.130;5.584;2023-02-11T08:58:57;8.00;99.90
11963;DHT22;62678;52.130;5.584;2023-02-11T09:01:25;8.10;99.90
11963;DHT22;62678;52.130;5.584;2023-02-11T09:03:53;8.00;99.90
11963;DHT22;62678;52.130;5.584;2023-02-11T09:06:20;8.00;99.90
11963;DHT22;62678;52.130;5.584;2023-02-11T09:08:49;8.10;99.90
11963;DHT22;62678;52.130;5.584;2023-02-11T09:11:17;8.10;99.90
11963;DHT22;62678;52.130;5.584;2023-02-11T09:13:47;8.30;99.90
11963;DHT22;62678;52.130;5.584;2023-02-11T09:16:21;8.30;99.90
11963;DHT22;62678;52.130;5.584;2023-02-11T09:18:49;8.30;99.90
11963;DHT22;62678;52.130;5.584;2023-02-11T09:21:17;8.40;99.90
11963;DHT22;62678;52.130;5.584;2023-02-11T09:23:44;8.30;99.90
11963;DHT22;62678;52.130;5.584;2023-02-11T09:26:14;8.40;99.90
11963;DHT22;62678;52.130;5.584;2023-02-11T09:28:41;8.40;99.90
11963;DHT22;62678;52.130;5.584;2023-02-11T09:31:10;8.50;99.90
11963;DHT22;62678;52.130;5.584;2023-02-11T09:33:39;8.60;99.90
11963;DHT22;62678;52.130;5.584;2023-02-11T09:36:13;8.60;99.90
11963;DHT22;62678;52.130;5.584;2023-02-11T09:38:40;8.70;99.90
11963;DHT22;62678;52.130;5.584;2023-02-11T09:41:26;8.70;99.90
11963;DHT22;62678;52.130;5.584;2023-02-11T09:43:59;8.70;99.90
11963;DHT22;62678;52.130;5.584;2023-02-11T09:46:30;8.70;99.90
11963;DHT22;62678;52.130;5.584;2023-02-11T09:49:01;8.80;99.90
11963;DHT22;62678;52.130;5.584;2023-02-11T09:51:36;8.90;99.90
11963;DHT22;62678;52.130;5.584;2023-02-11T09:54:11;8.90;99.90
11963;DHT22;62678;52.130;5.584;2023-02-11T09:56:38;9.00;99.90
11963;DHT22;62678;52.130;5.584;2023-02-11T09:59:09;9.00;99.90
11963;DHT22;62678;52.130;5.584;2023-02-11T10:01:39;9.00;99.90
11963;DHT22;62678;52.130;5.584;2023-02-11T10:04:13;9.00;99.90
11963;DHT22;62678;52.130;5.584;2023-02-11T10:06:47;9.00;99.90
11963;DHT22;62678;52.130;5.584;2023-02-11T10:12:17;9.10;99.90
11963;DHT22;62678;52.130;5.584;2023-02-11T10:15:01;9.10;99.90
11963;DHT22;62678;52.130;5.584;2023-02-11T10:17:37;9.10;99.90
11963;DHT22;62678;52.130;5.584;2023-02-11T10:20:17;9.20;99.90
11963;DHT22;62678;52.130;5.584;2023-02-11T10:22:48;9.40;99.90
11963;DHT22;62678;52.130;5.584;2023-02-11T10:25:20;9.40;99.90
11963;DHT22;62678;52.130;5.584;2023-02-11T10:27:47;9.60;99.90
11963;DHT22;62678;52.130;5.584;2023-02-11T10:30:22;9.70;99.90
11963;DHT22;62678;52.130;5.584;2023-02-11T10:32:55;9.90;99.90
11963;DHT22;62678;52.130;5.584;2023-02-11T10:35:24;9.80;99.90
11963;DHT22;62678;52.130;5.584;2023-02-11T10:37:52;10.00;99.90
11963;DHT22;62678;52.130;5.584;2023-02-11T10:40:21;10.10;99.90
11963;DHT22;62678;52.130;5.584;2023-02-11T10:42:50;10.30;99.90
11963;DHT22;62678;52.130;5.584;2023-02-11T10:45:22;10.20;99.90
11963;DHT22;62678;52.130;5.584;2023-02-11T10:47:50;10.40;99.90
11963;DHT22;62678;52.130;5.584;2023-02-11T10:50:21;10.40;99.90
11963;DHT22;62678;52.130;5.584;2023-02-11T10:52:49;10.10;99.90
11963;DHT22;62678;52.130;5.584;2023-02-11T10:55:17;10.20;99.90
11963;DHT22;62678;52.130;5.584;2023-02-11T10:57:53;10.20;99.90
11963;DHT22;62678;52.130;5.584;2023-02-11T11:00:33;10.00;99.90
11963;DHT22;62678;52.130;5.584;2023-02-11T11:03:04;10.00;99.90
11963;DHT22;62678;52.130;5.584;2023-02-11T11:05:36;10.00;99.90
11963;DHT22;62678;52.130;5.584;2023-02-11T11:08:12;10.10;99.90
11963;DHT22;62678;52.130;5.584;2023-02-11T11:10:41;10.20;99.90
11963;DHT22;62678;52.130;5.584;2023-02-11T11:13:26;10.20;99.90
11963;DHT22;62678;52.130;5.584;2023-02-11T11:16:22;10.20;99.90
11963;DHT22;62678;52.130;5.584;2023-02-11T11:18:51;10.30;99.90
11963;DHT22;62678;52.130;5.584;2023-02-11T11:21:21;10.50;99.90
11963;DHT22;62678;52.130;5.584;2023-02-11T11:23:54;10.50;99.90
11963;DHT22;62678;52.130;5.584;2023-02-11T11:26:22;10.40;99.90
11963;DHT22;62678;52.130;5.584;2023-02-11T11:28:58;10.40;99.90
11963;DHT22;62678;52.130;5.584;2023-02-11T11:31:29;10.40;99.90
11963;DHT22;62678;52.130;5.584;2023-02-11T11:33:58;10.40;99.90
11963;DHT22;62678;52.130;5.584;2023-02-11T11:36:32;10.50;99.90
11963;DHT22;62678;52.130;5.584;2023-02-11T11:39:12;10.70;99.90
11963;DHT22;62678;52.130;5.584;2023-02-11T11:41:50;11.00;99.90
11963;DHT22;62678;52.130;5.584;2023-02-11T11:44:23;11.00;99.90
11963;DHT22;62678;52.130;5.584;2023-02-11T11:49:40;10.70;99.90
11963;DHT22;62678;52.130;5.584;2023-02-11T11:52:16;10.80;99.90
11963;DHT22;62678;52.130;5.584;2023-02-11T11:54:50;10.80;99.90
11963;DHT22;62678;52.130;5.584;2023-02-11T11:57:25;10.90;99.90
11963;DHT22;62678;52.130;5.584;2023-02-11T11:59:53;11.00;99.90
11963;DHT22;62678;52.130;5.584;2023-02-11T12:02:41;10.80;99.90
11963;DHT22;62678;52.130;5.584;2023-02-11T12:05:12;10.70;99.90
11963;DHT22;62678;52.130;5.584;2023-02-11T12:07:50;10.80;99.90
11963;DHT22;62678;52.130;5.584;2023-02-11T12:10:30;10.80;99.90
11963;DHT22;62678;52.130;5.584;2023-02-11T12:13:08;10.60;99.90
11963;DHT22;62678;52.130;5.584;2023-02-11T12:15:43;10.70;99.90
11963;DHT22;62678;52.130;5.584;2023-02-11T12:18:33;10.80;99.90
11963;DHT22;62678;52.130;5.584;2023-02-11T12:21:21;10.80;99.90
11963;DHT22;62678;52.130;5.584;2023-02-11T12:24:01;10.70;99.90
11963;DHT22;62678;52.130;5.584;2023-02-11T12:26:38;10.80;99.90
11963;DHT22;62678;52.130;5.584;2023-02-11T12:29:14;10.90;99.90
11963;DHT22;62678;52.130;5.584;2023-02-11T12:31:55;10.90;99.90
11963;DHT22;62678;52.130;5.584;2023-02-11T12:34:34;10.90;99.90
11963;DHT22;62678;52.130;5.584;2023-02-11T12:37:08;11.00;99.90
11963;DHT22;62678;52.130;5.584;2023-02-11T12:39:43;11.10;99.90
11963;DHT22;62678;52.130;5.584;2023-02-11T12:42:33;11.10;99.90
11963;DHT22;62678;52.130;5.584;2023-02-11T12:45:31;11.10;99.90
11963;DHT22;62678;52.130;5.584;2023-02-11T12:48:16;11.10;99.90
11963;DHT22;62678;52.130;5.584;2023-02-11T12:50:52;11.20;99.90
11963;DHT22;62678;52.130;5.584;2023-02-11T12:56:21;11.30;99.90
11963;DHT22;62678;52.130;5.584;2023-02-11T12:58:54;11.20;99.90
11963;DHT22;62678;52.130;5.584;2023-02-11T13:01:25;11.20;99.90
11963;DHT22;62678;52.130;5.584;2023-02-11T13:03:55;11.30;99.90
11963;DHT22;62678;52.130;5.584;2023-02-11T13:06:27;11.30;99.90
11963;DHT22;62678;52.130;5.584;2023-02-11T13:08:59;11.30;99.90
11963;DHT22;62678;52.130;5.584;2023-02-11T13:11:29;11.40;99.90
11963;DHT22;62678;52.130;5.584;2023-02-11T13:14:02;11.40;99.90
11963;DHT22;62678;52.130;5.584;2023-02-11T13:16:35;11.50;99.90
11963;DHT22;62678;52.130;5.584;2023-02-11T13:19:09;11.50;99.90
11963;DHT22;62678;52.130;5.584;2023-02-11T13:21:50;11.40;99.90
11963;DHT22;62678;52.130;5.584;2023-02-11T13:24:24;11.50;99.90
11963;DHT22;62678;52.130;5.584;2023-02-11T13:26:58;11.50;99.90
11963;DHT22;62678;52.130;5.584;2023-02-11T13:29:35;11.60;99.90
11963;DHT22;62678;52.130;5.584;2023-02-11T13:32:08;11.50;99.90
11963;DHT22;62678;52.130;5.584;2023-02-11T13:34:58;11.80;99.90
11963;DHT22;62678;52.130;5.584;2023-02-11T13:37:28;12.00;99.90
11963;DHT22;62678;52.130;5.584;2023-02-11T13:39:58;12.00;99.90
11963;DHT22;62678;52.130;5.584;2023-02-11T13:42:26;11.80;99.90
11963;DHT22;62678;52.130;5.584;2023-02-11T13:44:55;11.70;99.90
11963;DHT22;62678;52.130;5.584;2023-02-11T13:47:29;11.90;99.90
11963;DHT22;62678;52.130;5.584;2023-02-11T13:49:59;11.90;99.90
11963;DHT22;62678;52.130;5.584;2023-02-11T13:52:28;11.90;99.90
11963;DHT22;62678;52.130;5.584;2023-02-11T13:54:59;11.80;99.90
11963;DHT22;62678;52.130;5.584;2023-02-11T13:57:33;11.80;99.90
11963;DHT22;62678;52.130;5.584;2023-02-11T14:06:26;11.50;99.90
11963;DHT22;62678;52.130;5.584;2023-02-11T14:09:34;11.40;99.90
11963;DHT22;62678;52.130;5.584;2023-02-11T14:12:32;11.40;99.90
11963;DHT22;62678;52.130;5.584;2023-02-11T14:15:20;11.30;99.90
11963;DHT22;62678;52.130;5.584;2023-02-11T14:17:48;11.20;99.90
11963;DHT22;62678;52.130;5.584;2023-02-11T14:20:38;11.10;99.90
11963;DHT22;62678;52.130;5.584;2023-02-11T14:23:21;11.20;99.90
11963;DHT22;62678;52.130;5.584;2023-02-11T14:25:58;11.30;99.90
11963;DHT22;62678;52.130;5.584;2023-02-11T14:28:28;11.40;99.90
11963;DHT22;62678;52.130;5.584;2023-02-11T14:31:03;11.40;99.90
11963;DHT22;62678;52.130;5.584;2023-02-11T14:33:55;11.40;99.90
11963;DHT22;62678;52.130;5.584;2023-02-11T14:39:39;11.50;99.90
11963;DHT22;62678;52.130;5.584;2023-02-11T14:42:16;11.60;99.90
11963;DHT22;62678;52.130;5.584;2023-02-11T14:44:45;11.60;99.90
11963;DHT22;62678;52.130;5.584;2023-02-11T14:47:18;11.50;99.90
11963;DHT22;62678;52.130;5.584;2023-02-11T14:49:47;11.40;99.90
11963;DHT22;62678;52.130;5.584;2023-02-11T14:52:20;11.30;99.90
11963;DHT22;62678;52.130;5.584;2023-02-11T14:54:54;11.40;99.90
11963;DHT22;62678;52.130;5.584;2023-02-11T14:57:23;11.40;99.90
11963;DHT22;62678;52.130;5.584;2023-02-11T14:59:57;11.30;99.90
11963;DHT22;62678;52.130;5.584;2023-02-11T15:02:32;11.30;99.90
11963;DHT22;62678;52.130;5.584;2023-02-11T15:05:18;11.20;99.90
11963;DHT22;62678;52.130;5.584;2023-02-11T15:07:47;11.00;99.90
11963;DHT22;62678;52.130;5.584;2023-02-11T15:10:18;10.90;99.90
11963;DHT22;62678;52.130;5.584;2023-02-11T15:12:45;10.90;99.90
11963;DHT22;62678;52.130;5.584;2023-02-11T15:15:15;10.90;99.90
11963;DHT22;62678;52.130;5.584;2023-02-11T15:17:44;10.90;99.90
11963;DHT22;62678;52.130;5.584;2023-02-11T15:20:20;11.00;99.90
11963;DHT22;62678;52.130;5.584;2023-02-11T15:22:54;10.90;99.90
11963;DHT22;62678;52.130;5.584;2023-02-11T15:25:21;10.90;99.90
11963;DHT22;62678;52.130;5.584;2023-02-11T15:27:50;10.80;99.90
11963;DHT22;62678;52.130;5.584;2023-02-11T15:30:24;10.80;99.90
11963;DHT22;62678;52.130;5.584;2023-02-11T15:32:54;10.80;99.90
11963;DHT22;62678;52.130;5.584;2023-02-11T15:35:23;10.70;99.90
11963;DHT22;62678;52.130;5.584;2023-02-11T15:37:53;10.70;99.90
11963;DHT22;62678;52.130;5.584;2023-02-11T15:40:22;10.70;99.90
11963;DHT22;62678;52.130;5.584;2023-02-11T15:42:54;10.70;99.90
11963;DHT22;62678;52.130;5.584;2023-02-11T15:45:23;10.70;99.90
11963;DHT22;62678;52.130;5.584;2023-02-11T15:47:56;10.60;99.90
11963;DHT22;62678;52.130;5.584;2023-02-11T15:50:26;10.60;99.90
11963;DHT22;62678;52.130;5.584;2023-02-11T15:52:55;10.50;99.90
11963;DHT22;62678;52.130;5.584;2023-02-11T15:55:23;10.50;99.90
11963;DHT22;62678;52.130;5.584;2023-02-11T15:57:53;10.40;99.90
11963;DHT22;62678;52.130;5.584;2023-02-11T16:00:23;10.40;99.90
11963;DHT22;62678;52.130;5.584;2023-02-11T16:02:50;10.30;99.90
11963;DHT22;62678;52.130;5.584;2023-02-11T16:05:28;10.30;99.90
11963;DHT22;62678;52.130;5.584;2023-02-11T16:07:56;10.20;99.90
11963;DHT22;62678;52.130;5.584;2023-02-11T16:10:26;10.10;99.90
11963;DHT22;62678;52.130;5.584;2023-02-11T16:13:01;10.10;99.90
11963;DHT22;62678;52.130;5.584;2023-02-11T16:15:37;10.10;99.90
11963;DHT22;62678;52.130;5.584;2023-02-11T16:18:13;10.00;99.90
11963;DHT22;62678;52.130;5.584;2023-02-11T16:20:46;9.90;99.90
11963;DHT22;62678;52.130;5.584;2023-02-11T16:23:20;9.70;99.90
11963;DHT22;62678;52.130;5.584;2023-02-11T16:25:48;9.70;99.90
11963;DHT22;62678;52.130;5.584;2023-02-11T16:28:16;9.70;99.90